createdAt,value
2023-04-15T00:01:19.994Z,6.5
2023-04-15T00:06:57.485Z,6.6
2023-04-15T00:12:48.218Z,6.6
2023-04-15T00:18:25.357Z,6.8
2023-04-15T00:24:16.903Z,6.8
2023-04-15T00:30:08.073Z,6.7
2023-04-15T00:36:00.042Z,6.8
2023-04-15T00:41:51.416Z,6.8
2023-04-15T00:47:27.820Z,7
2023-04-15T00:53:20.682Z,7
2023-04-15T00:59:11.684Z,6.6
2023-04-15T01:05:04.620Z,6.2
2023-04-15T01:10:41.245Z,6.1
2023-04-15T01:16:32.519Z,6.4
2023-04-15T01:22:24.708Z,6.4
2023-04-15T01:28:16.460Z,5.9
2023-04-15T01:34:08.500Z,5.3
2023-04-15T01:39:59.375Z,5.1
2023-04-15T01:45:51.700Z,5.1
2023-04-15T01:51:43.174Z,5.4
2023-04-15T01:57:34.238Z,5.1
2023-04-15T02:03:11.859Z,4.9
2023-04-15T02:08:48.084Z,5
2023-04-15T02:14:39.132Z,5.4
2023-04-15T02:20:31.401Z,5.3
2023-04-15T02:25:54.402Z,5.1
2023-04-15T02:31:45.919Z,4.7
2023-04-15T02:37:38.104Z,4.4
2023-04-15T02:43:29.368Z,3.9
2023-04-15T02:49:21.313Z,3.6
2023-04-15T02:55:13.312Z,3.3
2023-04-15T03:01:04.517Z,3.1
2023-04-15T03:06:57.544Z,2.9
2023-04-15T03:12:49.204Z,2.9
2023-04-15T03:18:40.394Z,2.9
2023-04-15T03:24:31.700Z,3
2023-04-15T03:30:23.820Z,2.7
2023-04-15T03:35:59.736Z,2.7
2023-04-15T03:41:36.461Z,2.6
2023-04-15T03:47:30.342Z,2.7
2023-04-15T03:53:35.239Z,2.8
2023-04-15T03:59:25.947Z,2.8
2023-04-15T04:05:19.719Z,2.9
2023-04-15T04:11:11.137Z,3
2023-04-15T04:17:02.298Z,3.1
2023-04-15T04:22:38.707Z,3.4
2023-04-15T04:28:14.746Z,3.7
2023-04-15T04:34:06.752Z,3.8
2023-04-15T04:39:58.715Z,4.1
2023-04-15T04:45:50.338Z,4.3
2023-04-15T04:51:41.820Z,4.4
2023-04-15T04:57:33.735Z,4.5
2023-04-15T05:03:26.244Z,4.9
2023-04-15T05:09:02.426Z,5.3
2023-04-15T05:14:56.376Z,5.2
2023-04-15T05:20:48.617Z,6.1
2023-04-15T05:26:42.764Z,6
2023-04-15T05:32:34.499Z,6.6
2023-04-15T05:38:26.045Z,7.5
2023-04-15T05:44:17.995Z,7.8
2023-04-15T05:50:10.833Z,7.9
2023-04-15T05:56:04.623Z,8.2
2023-04-15T06:01:56.160Z,8.1
2023-04-15T06:07:18.389Z,9.4
2023-04-15T06:12:54.675Z,10.1
2023-04-15T06:18:31.356Z,10.4
2023-04-15T06:24:23.863Z,10.9
2023-04-15T06:29:44.730Z,11.1
2023-04-15T06:35:37.204Z,11.3
2023-04-15T06:41:15.015Z,11.9
2023-04-15T06:46:51.719Z,12.1
2023-04-15T06:52:43.171Z,12.2
2023-04-15T06:58:35.017Z,12.1
2023-04-15T07:04:10.802Z,13.1
2023-04-15T07:10:01.250Z,13.1
2023-04-15T07:15:53.247Z,13.1
2023-04-15T07:21:47.035Z,13.7
2023-04-15T07:27:38.561Z,14.1
2023-04-15T07:33:31.624Z,14.3
2023-04-15T07:39:21.821Z,13.7
2023-04-15T07:45:15.220Z,14.3
2023-04-15T07:51:09.642Z,13.6
2023-04-15T07:57:00.814Z,14.5
2023-04-15T08:02:54.091Z,14.5
2023-04-15T08:08:32.732Z,15.6
2023-04-15T08:14:08.607Z,15.5
2023-04-15T08:19:59.598Z,15.7
2023-04-15T08:25:58.260Z,15.9
2023-04-15T08:31:50.374Z,15.2
2023-04-15T08:37:27.291Z,15.6
2023-04-15T08:43:03.499Z,15.5
2023-04-15T08:48:39.905Z,15.1
2023-04-15T08:54:32.451Z,15.8
2023-04-15T09:00:24.070Z,16.4
2023-04-15T09:06:16.265Z,16.2
2023-04-15T09:12:10.395Z,15.6
2023-04-15T09:18:02.453Z,15.3
2023-04-15T09:23:52.628Z,17.1
2023-04-15T09:29:46.576Z,15.4
2023-04-15T09:35:38.980Z,16.3
2023-04-15T09:41:44.624Z,16.7
2023-04-15T09:47:21.446Z,16.5
2023-04-15T09:53:11.252Z,15.8
2023-04-15T09:58:50.277Z,16.3
2023-04-15T10:04:43.705Z,15.8
2023-04-15T10:10:19.824Z,16.3
2023-04-15T10:15:55.418Z,16
2023-04-15T10:21:16.192Z,16.1
2023-04-15T10:26:39.076Z,15.6
2023-04-15T10:32:30.465Z,17.3
2023-04-15T10:38:21.473Z,16.9
2023-04-15T10:43:57.648Z,16.8
2023-04-15T10:49:33.857Z,17.9
2023-04-15T10:55:24.539Z,17.2
2023-04-15T11:01:00.324Z,16.6
2023-04-15T11:06:53.738Z,17.4
2023-04-15T11:12:45.492Z,17.1
2023-04-15T11:18:37.608Z,18
2023-04-15T11:24:43.104Z,17.7
2023-04-15T11:30:19.535Z,17.1
2023-04-15T11:36:11.610Z,18.4
2023-04-15T11:42:02.851Z,17.3
2023-04-15T11:48:07.415Z,18.1
2023-04-15T11:52:57.637Z,17.9
2023-04-15T11:58:33.564Z,18.5
2023-04-15T12:09:55.874Z,18.3
2023-04-15T12:15:46.898Z,18
2023-04-15T12:22:05.327Z,18
2023-04-15T12:27:56.121Z,17.4
2023-04-15T12:33:34.586Z,18
2023-04-15T12:39:10.637Z,18
2023-04-15T12:44:48.333Z,17.7
2023-04-15T12:50:39.558Z,17.9
2023-04-15T13:01:53.151Z,18.3
2023-04-15T13:07:46.903Z,18.4
2023-04-15T13:13:43.946Z,18.4
2023-04-15T13:19:35.572Z,18.1
2023-04-15T13:25:26.600Z,18.2
2023-04-15T13:31:19.228Z,18.9
2023-04-15T13:37:11.023Z,19.1
2023-04-15T13:43:04.261Z,18.3
2023-04-15T13:48:55.616Z,17.8
2023-04-15T13:55:07.370Z,18.6
2023-04-15T14:06:47.858Z,18.5
2023-04-15T14:12:42.669Z,18.6
2023-04-15T14:18:35.262Z,18.8
2023-04-15T14:24:30.025Z,18.6
2023-04-15T14:30:34.800Z,18.6
2023-04-15T14:36:26.880Z,18.9
2023-04-15T14:42:17.967Z,18.6
2023-04-15T14:48:09.877Z,18.8
2023-04-15T14:54:01.449Z,18.2
2023-04-15T14:59:53.166Z,17.8
2023-04-15T15:06:03.499Z,17.8
2023-04-15T15:12:16.727Z,18.4
2023-04-15T15:18:20.662Z,18.9
2023-04-15T15:24:12.040Z,18.4
2023-04-15T15:30:03.757Z,18.2
2023-04-15T15:35:56.014Z,18.5
2023-04-15T15:41:48.431Z,19.1
2023-04-15T15:47:25.768Z,19
2023-04-15T15:58:39.052Z,19
2023-04-15T16:05:10.011Z,17.8
2023-04-15T16:11:04.736Z,17.9
2023-04-15T16:16:57.283Z,18.2
2023-04-15T16:23:05.938Z,17.9
2023-04-15T16:29:17.241Z,17.5
2023-04-15T16:35:08.774Z,16.7
2023-04-15T16:40:59.454Z,16.8
2023-04-15T16:46:52.548Z,16.4
2023-04-15T16:52:44.958Z,16.1
2023-04-15T16:59:08.347Z,16
2023-04-15T17:05:02.783Z,15.9
2023-04-15T17:10:54.109Z,15.8
2023-04-15T17:16:46.193Z,15.6
2023-04-15T17:22:22.279Z,15.4
2023-04-15T17:27:58.074Z,15.4
2023-04-15T17:34:49.259Z,15.3
2023-04-15T17:40:42.648Z,15.4
2023-04-15T17:46:33.909Z,15.3
2023-04-15T17:52:26.696Z,15.2
2023-04-15T17:58:19.113Z,15.1
2023-04-15T18:04:12.979Z,14.9
2023-04-15T18:10:05.231Z,14.7
2023-04-15T18:16:14.524Z,14.9
2023-04-15T18:22:06.855Z,14.8
2023-04-15T18:27:58.871Z,14.7
2023-04-15T18:33:51.341Z,14.9
2023-04-15T18:39:30.267Z,14.6
2023-04-15T18:45:07.459Z,14.8
2023-04-15T18:50:59.822Z,14.5
2023-04-15T18:56:52.016Z,14.4
2023-04-15T19:03:41.025Z,14.3
2023-04-15T19:09:33.298Z,14
2023-04-15T19:15:24.972Z,13.4
2023-04-15T19:21:17.458Z,13
2023-04-15T19:27:09.531Z,13
2023-04-15T19:33:03.713Z,12.8
2023-04-15T19:38:39.969Z,12.7
2023-04-15T19:44:16.300Z,12.5
2023-04-15T19:49:52.772Z,12.2
2023-04-15T19:55:28.799Z,11.6
2023-04-15T20:01:19.952Z,11.5
2023-04-15T20:07:13.125Z,11.3
2023-04-15T20:13:58.224Z,11.3
2023-04-15T20:19:50.241Z,11.2
2023-04-15T20:25:41.317Z,11.2
2023-04-15T20:31:32.533Z,11.2
2023-04-15T20:37:24.250Z,11
2023-04-15T20:43:16.201Z,11.1
2023-04-15T20:49:20.008Z,11.1
2023-04-15T20:55:11.439Z,11.1
2023-04-15T21:01:05.317Z,11.1
2023-04-15T21:06:58.703Z,11.1
2023-04-15T21:13:10.910Z,11
2023-04-15T21:19:02.130Z,11
2023-04-15T21:24:40.899Z,11.1
2023-04-15T21:30:32.070Z,11.1
2023-04-15T21:36:23.159Z,10.9
2023-04-15T21:41:59.639Z,11
2023-04-15T21:48:39.858Z,10.9
2023-04-15T21:54:30.973Z,11
2023-04-15T22:00:21.856Z,10.9
2023-04-15T22:06:18.123Z,10.9
2023-04-15T22:12:21.390Z,10.8
2023-04-15T22:18:13.152Z,10.7
2023-04-15T22:24:55.760Z,10.5
2023-04-15T22:30:46.632Z,10.4
2023-04-15T22:36:38.520Z,10.3
2023-04-15T22:42:30.998Z,10.3
2023-04-15T22:48:07.653Z,10.3
2023-04-15T22:54:14.788Z,10.1
2023-04-15T22:59:51.358Z,10.1
2023-04-15T23:06:18.562Z,10.1
2023-04-15T23:11:54.313Z,9.4
2023-04-15T23:17:46.180Z,9
2023-04-15T23:23:37.278Z,9.3
2023-04-15T23:29:28.603Z,8.9
2023-04-15T23:35:21.094Z,8.9
2023-04-15T23:41:12.848Z,8.8
2023-04-15T23:46:48.368Z,8.6
2023-04-15T23:52:43.055Z,8.4
2023-04-15T23:58:34.712Z,8.3
